sensor_id;sensor_type;location;lat;lon;timestamp;P1;durP1;ratioP1;P2;durP2;ratioP2
75894;SDS011;64573;50.328;15.014;2023-03-23T00:00:53;10.82;;;4.95;;
75894;SDS011;64573;50.328;15.014;2023-03-23T00:03:19;7.82;;;4.68;;
75894;SDS011;64573;50.328;15.014;2023-03-23T00:05:46;8.15;;;4.50;;
75894;SDS011;64573;50.328;15.014;2023-03-23T00:08:21;17.63;;;6.40;;
75894;SDS011;64573;50.328;15.014;2023-03-23T00:10:49;17.83;;;7.72;;
75894;SDS011;64573;50.328;15.014;2023-03-23T00:13:25;11.25;;;6.03;;
75894;SDS011;64573;50.328;15.014;2023-03-23T00:15:51;9.95;;;4.80;;
75894;SDS011;64573;50.328;15.014;2023-03-23T00:18:17;13.57;;;5.97;;
75894;SDS011;64573;50.328;15.014;2023-03-23T00:20:46;10.77;;;5.50;;
75894;SDS011;64573;50.328;15.014;2023-03-23T00:23:20;8.70;;;5.10;;
75894;SDS011;64573;50.328;15.014;2023-03-23T00:25:48;8.27;;;4.53;;
75894;SDS011;64573;50.328;15.014;2023-03-23T00:28:15;11.50;;;5.22;;
75894;SDS011;64573;50.328;15.014;2023-03-23T00:30:41;7.75;;;4.38;;
75894;SDS011;64573;50.328;15.014;2023-03-23T00:33:07;8.18;;;4.05;;
75894;SDS011;64573;50.328;15.014;2023-03-23T00:35:33;9.57;;;4.45;;
75894;SDS011;64573;50.328;15.014;2023-03-23T00:38:00;6.47;;;4.10;;
75894;SDS011;64573;50.328;15.014;2023-03-23T00:40:27;7.47;;;4.10;;
75894;SDS011;64573;50.328;15.014;2023-03-23T00:42:52;7.70;;;4.47;;
75894;SDS011;64573;50.328;15.014;2023-03-23T00:45:18;7.05;;;4.30;;
75894;SDS011;64573;50.328;15.014;2023-03-23T00:47:43;7.65;;;4.63;;
75894;SDS011;64573;50.328;15.014;2023-03-23T00:50:11;8.68;;;4.40;;
75894;SDS011;64573;50.328;15.014;2023-03-23T00:52:38;6.05;;;4.00;;
75894;SDS011;64573;50.328;15.014;2023-03-23T00:55:04;6.03;;;3.80;;
75894;SDS011;64573;50.328;15.014;2023-03-23T00:57:30;5.65;;;3.67;;
75894;SDS011;64573;50.328;15.014;2023-03-23T00:59:55;6.50;;;4.05;;
75894;SDS011;64573;50.328;15.014;2023-03-23T01:02:20;9.27;;;4.90;;
75894;SDS011;64573;50.328;15.014;2023-03-23T01:04:50;9.15;;;4.30;;
75894;SDS011;64573;50.328;15.014;2023-03-23T01:07:20;8.90;;;4.30;;
75894;SDS011;64573;50.328;15.014;2023-03-23T01:09:48;8.73;;;4.03;;
75894;SDS011;64573;50.328;15.014;2023-03-23T01:12:13;7.50;;;3.63;;
75894;SDS011;64573;50.328;15.014;2023-03-23T01:14:39;10.38;;;4.00;;
75894;SDS011;64573;50.328;15.014;2023-03-23T01:17:05;6.35;;;4.07;;
75894;SDS011;64573;50.328;15.014;2023-03-23T01:19:31;9.13;;;4.30;;
75894;SDS011;64573;50.328;15.014;2023-03-23T01:21:56;7.72;;;4.15;;
75894;SDS011;64573;50.328;15.014;2023-03-23T01:24:21;28.95;;;12.50;;
75894;SDS011;64573;50.328;15.014;2023-03-23T01:26:47;48.40;;;20.20;;
75894;SDS011;64573;50.328;15.014;2023-03-23T01:29:12;11.93;;;5.30;;
75894;SDS011;64573;50.328;15.014;2023-03-23T01:31:38;9.35;;;4.20;;
75894;SDS011;64573;50.328;15.014;2023-03-23T01:34:04;11.20;;;4.55;;
75894;SDS011;64573;50.328;15.014;2023-03-23T01:36:30;8.32;;;5.22;;
75894;SDS011;64573;50.328;15.014;2023-03-23T01:38:57;9.30;;;4.88;;
75894;SDS011;64573;50.328;15.014;2023-03-23T01:41:25;8.00;;;4.70;;
75894;SDS011;64573;50.328;15.014;2023-03-23T01:44:03;10.18;;;5.63;;
75894;SDS011;64573;50.328;15.014;2023-03-23T01:46:31;10.27;;;6.07;;
75894;SDS011;64573;50.328;15.014;2023-03-23T01:48:59;10.15;;;5.38;;
75894;SDS011;64573;50.328;15.014;2023-03-23T01:51:31;11.55;;;5.88;;
75894;SDS011;64573;50.328;15.014;2023-03-23T01:54:02;15.82;;;7.40;;
75894;SDS011;64573;50.328;15.014;2023-03-23T01:56:32;24.40;;;10.82;;
75894;SDS011;64573;50.328;15.014;2023-03-23T01:59:06;11.68;;;4.68;;
75894;SDS011;64573;50.328;15.014;2023-03-23T02:01:32;9.07;;;4.40;;
75894;SDS011;64573;50.328;15.014;2023-03-23T02:04:03;10.00;;;4.32;;
75894;SDS011;64573;50.328;15.014;2023-03-23T02:06:29;7.72;;;4.15;;
75894;SDS011;64573;50.328;15.014;2023-03-23T02:08:55;12.82;;;4.85;;
75894;SDS011;64573;50.328;15.014;2023-03-23T02:11:21;44.90;;;18.52;;
75894;SDS011;64573;50.328;15.014;2023-03-23T02:13:47;11.80;;;5.93;;
75894;SDS011;64573;50.328;15.014;2023-03-23T02:32:04;7.95;;;4.60;;
75894;SDS011;64573;50.328;15.014;2023-03-23T02:34:32;8.57;;;4.93;;
75894;SDS011;64573;50.328;15.014;2023-03-23T02:37:14;8.25;;;5.22;;
75894;SDS011;64573;50.328;15.014;2023-03-23T02:40:04;10.88;;;5.25;;
75894;SDS011;64573;50.328;15.014;2023-03-23T02:42:36;9.25;;;5.80;;
75894;SDS011;64573;50.328;15.014;2023-03-23T02:45:05;9.35;;;5.22;;
75894;SDS011;64573;50.328;15.014;2023-03-23T02:47:33;12.60;;;5.40;;
75894;SDS011;64573;50.328;15.014;2023-03-23T02:50:02;9.43;;;5.28;;
75894;SDS011;64573;50.328;15.014;2023-03-23T02:52:32;12.45;;;5.90;;
75894;SDS011;64573;50.328;15.014;2023-03-23T02:55:00;11.43;;;5.57;;
75894;SDS011;64573;50.328;15.014;2023-03-23T02:57:27;11.63;;;5.85;;
75894;SDS011;64573;50.328;15.014;2023-03-23T02:59:53;9.93;;;5.50;;
75894;SDS011;64573;50.328;15.014;2023-03-23T03:02:26;10.43;;;5.43;;
75894;SDS011;64573;50.328;15.014;2023-03-23T03:10:51;9.25;;;5.13;;
75894;SDS011;64573;50.328;15.014;2023-03-23T03:18:44;10.93;;;6.22;;
75894;SDS011;64573;50.328;15.014;2023-03-23T03:21:21;8.95;;;6.10;;
75894;SDS011;64573;50.328;15.014;2023-03-23T03:23:52;9.55;;;5.80;;
75894;SDS011;64573;50.328;15.014;2023-03-23T03:26:21;11.55;;;5.93;;
75894;SDS011;64573;50.328;15.014;2023-03-23T03:28:51;9.00;;;5.50;;
75894;SDS011;64573;50.328;15.014;2023-03-23T03:31:19;11.05;;;6.30;;
75894;SDS011;64573;50.328;15.014;2023-03-23T03:33:49;8.90;;;5.07;;
75894;SDS011;64573;50.328;15.014;2023-03-23T03:36:17;10.10;;;6.13;;
75894;SDS011;64573;50.328;15.014;2023-03-23T03:38:46;11.15;;;6.07;;
75894;SDS011;64573;50.328;15.014;2023-03-23T03:41:14;11.50;;;6.20;;
75894;SDS011;64573;50.328;15.014;2023-03-23T03:43:40;10.05;;;5.40;;
75894;SDS011;64573;50.328;15.014;2023-03-23T03:46:06;8.98;;;5.50;;
75894;SDS011;64573;50.328;15.014;2023-03-23T03:48:32;9.40;;;5.82;;
75894;SDS011;64573;50.328;15.014;2023-03-23T03:50:58;12.75;;;6.15;;
75894;SDS011;64573;50.328;15.014;2023-03-23T03:53:25;12.90;;;6.30;;
75894;SDS011;64573;50.328;15.014;2023-03-23T03:55:51;10.18;;;6.00;;
75894;SDS011;64573;50.328;15.014;2023-03-23T03:58:20;13.15;;;6.28;;
75894;SDS011;64573;50.328;15.014;2023-03-23T04:00:46;11.93;;;5.85;;
75894;SDS011;64573;50.328;15.014;2023-03-23T04:03:15;10.43;;;5.80;;
75894;SDS011;64573;50.328;15.014;2023-03-23T04:05:41;10.15;;;5.28;;
75894;SDS011;64573;50.328;15.014;2023-03-23T04:08:09;9.80;;;5.55;;
75894;SDS011;64573;50.328;15.014;2023-03-23T04:10:36;14.52;;;5.72;;
75894;SDS011;64573;50.328;15.014;2023-03-23T04:13:01;9.02;;;5.75;;
75894;SDS011;64573;50.328;15.014;2023-03-23T04:15:29;9.43;;;5.75;;
75894;SDS011;64573;50.328;15.014;2023-03-23T04:17:55;10.40;;;6.03;;
75894;SDS011;64573;50.328;15.014;2023-03-23T04:20:21;11.57;;;5.90;;
75894;SDS011;64573;50.328;15.014;2023-03-23T04:22:47;11.23;;;5.68;;
75894;SDS011;64573;50.328;15.014;2023-03-23T04:25:18;12.88;;;6.45;;
75894;SDS011;64573;50.328;15.014;2023-03-23T04:27:45;10.88;;;5.80;;
75894;SDS011;64573;50.328;15.014;2023-03-23T04:30:17;13.07;;;6.43;;
75894;SDS011;64573;50.328;15.014;2023-03-23T04:32:44;10.15;;;6.20;;
75894;SDS011;64573;50.328;15.014;2023-03-23T04:35:11;13.20;;;6.25;;
75894;SDS011;64573;50.328;15.014;2023-03-23T04:37:39;10.68;;;5.72;;
75894;SDS011;64573;50.328;15.014;2023-03-23T04:40:06;9.70;;;5.90;;
75894;SDS011;64573;50.328;15.014;2023-03-23T04:42:34;10.57;;;5.80;;
75894;SDS011;64573;50.328;15.014;2023-03-23T04:45:00;19.73;;;6.28;;
75894;SDS011;64573;50.328;15.014;2023-03-23T04:47:27;9.85;;;5.97;;
75894;SDS011;64573;50.328;15.014;2023-03-23T04:49:54;13.18;;;5.82;;
75894;SDS011;64573;50.328;15.014;2023-03-23T04:52:24;9.18;;;5.35;;
75894;SDS011;64573;50.328;15.014;2023-03-23T04:54:50;11.55;;;6.20;;
75894;SDS011;64573;50.328;15.014;2023-03-23T04:57:16;11.43;;;6.00;;
75894;SDS011;64573;50.328;15.014;2023-03-23T04:59:42;11.02;;;5.90;;
75894;SDS011;64573;50.328;15.014;2023-03-23T05:02:08;10.57;;;6.22;;
75894;SDS011;64573;50.328;15.014;2023-03-23T05:04:38;10.65;;;6.15;;
75894;SDS011;64573;50.328;15.014;2023-03-23T05:07:05;12.60;;;6.65;;
75894;SDS011;64573;50.328;15.014;2023-03-23T05:09:31;8.95;;;5.60;;
75894;SDS011;64573;50.328;15.014;2023-03-23T05:11:57;11.43;;;6.70;;
75894;SDS011;64573;50.328;15.014;2023-03-23T05:14:24;10.00;;;6.28;;
75894;SDS011;64573;50.328;15.014;2023-03-23T05:16:50;15.63;;;6.22;;
75894;SDS011;64573;50.328;15.014;2023-03-23T05:19:17;13.70;;;6.53;;
75894;SDS011;64573;50.328;15.014;2023-03-23T05:21:42;16.35;;;6.22;;
75894;SDS011;64573;50.328;15.014;2023-03-23T05:24:09;13.38;;;6.60;;
75894;SDS011;64573;50.328;15.014;2023-03-23T05:26:35;13.82;;;6.85;;
75894;SDS011;64573;50.328;15.014;2023-03-23T05:29:00;12.40;;;7.25;;
75894;SDS011;64573;50.328;15.014;2023-03-23T05:31:26;13.70;;;6.93;;
75894;SDS011;64573;50.328;15.014;2023-03-23T05:33:51;10.18;;;6.57;;
75894;SDS011;64573;50.328;15.014;2023-03-23T05:36:17;11.10;;;7.00;;
75894;SDS011;64573;50.328;15.014;2023-03-23T05:38:43;14.00;;;7.85;;
75894;SDS011;64573;50.328;15.014;2023-03-23T05:41:19;12.45;;;6.50;;
75894;SDS011;64573;50.328;15.014;2023-03-23T05:43:44;10.18;;;6.13;;
75894;SDS011;64573;50.328;15.014;2023-03-23T05:46:10;12.95;;;6.05;;
75894;SDS011;64573;50.328;15.014;2023-03-23T05:48:35;14.38;;;6.65;;
75894;SDS011;64573;50.328;15.014;2023-03-23T05:51:01;9.70;;;6.30;;
75894;SDS011;64573;50.328;15.014;2023-03-23T05:53:27;11.20;;;6.00;;
75894;SDS011;64573;50.328;15.014;2023-03-23T05:55:57;15.00;;;6.07;;
75894;SDS011;64573;50.328;15.014;2023-03-23T05:58:23;13.90;;;6.60;;
75894;SDS011;64573;50.328;15.014;2023-03-23T06:00:49;11.52;;;6.40;;
75894;SDS011;64573;50.328;15.014;2023-03-23T06:03:14;10.93;;;6.50;;
75894;SDS011;64573;50.328;15.014;2023-03-23T06:05:43;9.82;;;6.47;;
75894;SDS011;64573;50.328;15.014;2023-03-23T06:08:10;11.60;;;7.10;;
75894;SDS011;64573;50.328;15.014;2023-03-23T06:10:36;14.43;;;7.20;;
75894;SDS011;64573;50.328;15.014;2023-03-23T06:13:02;12.98;;;6.30;;
75894;SDS011;64573;50.328;15.014;2023-03-23T06:15:28;12.20;;;5.95;;
75894;SDS011;64573;50.328;15.014;2023-03-23T06:17:58;12.05;;;6.10;;
75894;SDS011;64573;50.328;15.014;2023-03-23T06:20:24;10.32;;;6.15;;
75894;SDS011;64573;50.328;15.014;2023-03-23T06:22:49;9.43;;;5.13;;
75894;SDS011;64573;50.328;15.014;2023-03-23T06:25:17;8.43;;;5.32;;
75894;SDS011;64573;50.328;15.014;2023-03-23T06:27:43;10.35;;;5.95;;
75894;SDS011;64573;50.328;15.014;2023-03-23T06:30:10;10.98;;;6.05;;
75894;SDS011;64573;50.328;15.014;2023-03-23T06:32:36;10.60;;;5.82;;
75894;SDS011;64573;50.328;15.014;2023-03-23T06:35:03;13.40;;;5.80;;
75894;SDS011;64573;50.328;15.014;2023-03-23T06:37:29;10.38;;;5.45;;
75894;SDS011;64573;50.328;15.014;2023-03-23T06:39:55;8.85;;;5.47;;
75894;SDS011;64573;50.328;15.014;2023-03-23T06:42:21;11.13;;;5.63;;
75894;SDS011;64573;50.328;15.014;2023-03-23T06:44:49;8.65;;;5.30;;
75894;SDS011;64573;50.328;15.014;2023-03-23T06:47:15;8.07;;;5.13;;
75894;SDS011;64573;50.328;15.014;2023-03-23T06:49:41;8.80;;;5.38;;
75894;SDS011;64573;50.328;15.014;2023-03-23T06:52:06;16.52;;;5.97;;
75894;SDS011;64573;50.328;15.014;2023-03-23T06:54:31;9.38;;;5.80;;
75894;SDS011;64573;50.328;15.014;2023-03-23T06:56:57;10.07;;;6.13;;
75894;SDS011;64573;50.328;15.014;2023-03-23T06:59:22;11.48;;;6.18;;
75894;SDS011;64573;50.328;15.014;2023-03-23T07:01:48;12.23;;;6.22;;
75894;SDS011;64573;50.328;15.014;2023-03-23T07:04:15;11.18;;;5.63;;
75894;SDS011;64573;50.328;15.014;2023-03-23T07:06:41;9.20;;;5.60;;
75894;SDS011;64573;50.328;15.014;2023-03-23T07:09:06;10.48;;;4.93;;
75894;SDS011;64573;50.328;15.014;2023-03-23T07:11:32;5.97;;;3.90;;
75894;SDS011;64573;50.328;15.014;2023-03-23T07:13:57;8.23;;;4.18;;
75894;SDS011;64573;50.328;15.014;2023-03-23T07:16:23;7.88;;;3.88;;
75894;SDS011;64573;50.328;15.014;2023-03-23T07:18:48;8.43;;;4.30;;
75894;SDS011;64573;50.328;15.014;2023-03-23T07:21:13;6.63;;;4.40;;
75894;SDS011;64573;50.328;15.014;2023-03-23T07:23:39;7.38;;;4.57;;
75894;SDS011;64573;50.328;15.014;2023-03-23T07:26:05;6.97;;;3.95;;
75894;SDS011;64573;50.328;15.014;2023-03-23T07:28:30;6.60;;;4.15;;
75894;SDS011;64573;50.328;15.014;2023-03-23T07:30:56;10.13;;;4.43;;
75894;SDS011;64573;50.328;15.014;2023-03-23T07:33:21;6.70;;;4.18;;
75894;SDS011;64573;50.328;15.014;2023-03-23T07:35:47;7.40;;;4.30;;
75894;SDS011;64573;50.328;15.014;2023-03-23T07:38:13;13.10;;;4.00;;
75894;SDS011;64573;50.328;15.014;2023-03-23T07:40:38;6.28;;;3.78;;
75894;SDS011;64573;50.328;15.014;2023-03-23T07:43:05;7.50;;;4.20;;
75894;SDS011;64573;50.328;15.014;2023-03-23T07:45:31;6.68;;;4.00;;
75894;SDS011;64573;50.328;15.014;2023-03-23T07:47:56;8.05;;;4.30;;
75894;SDS011;64573;50.328;15.014;2023-03-23T07:50:22;6.38;;;3.90;;
75894;SDS011;64573;50.328;15.014;2023-03-23T07:52:49;10.75;;;3.67;;
75894;SDS011;64573;50.328;15.014;2023-03-23T07:55:18;8.85;;;3.80;;
75894;SDS011;64573;50.328;15.014;2023-03-23T07:57:44;7.32;;;3.90;;
75894;SDS011;64573;50.328;15.014;2023-03-23T08:00:11;5.13;;;3.25;;
75894;SDS011;64573;50.328;15.014;2023-03-23T08:02:41;7.53;;;4.05;;
75894;SDS011;64573;50.328;15.014;2023-03-23T08:05:07;5.57;;;3.33;;
75894;SDS011;64573;50.328;15.014;2023-03-23T08:07:33;6.55;;;3.65;;
75894;SDS011;64573;50.328;15.014;2023-03-23T08:09:59;8.30;;;3.97;;
75894;SDS011;64573;50.328;15.014;2023-03-23T08:12:25;9.85;;;4.05;;
75894;SDS011;64573;50.328;15.014;2023-03-23T08:14:52;7.30;;;3.85;;
75894;SDS011;64573;50.328;15.014;2023-03-23T08:17:18;8.23;;;4.00;;
75894;SDS011;64573;50.328;15.014;2023-03-23T08:19:44;6.90;;;3.88;;
75894;SDS011;64573;50.328;15.014;2023-03-23T08:22:11;11.82;;;3.72;;
75894;SDS011;64573;50.328;15.014;2023-03-23T08:24:36;5.47;;;2.65;;
75894;SDS011;64573;50.328;15.014;2023-03-23T08:27:02;6.72;;;3.33;;
75894;SDS011;64573;50.328;15.014;2023-03-23T08:29:27;4.60;;;2.90;;
75894;SDS011;64573;50.328;15.014;2023-03-23T08:31:53;6.07;;;3.08;;
75894;SDS011;64573;50.328;15.014;2023-03-23T08:34:19;7.00;;;2.65;;
75894;SDS011;64573;50.328;15.014;2023-03-23T08:36:45;6.80;;;2.83;;
75894;SDS011;64573;50.328;15.014;2023-03-23T08:39:11;6.30;;;2.50;;
75894;SDS011;64573;50.328;15.014;2023-03-23T08:41:39;4.72;;;2.88;;
75894;SDS011;64573;50.328;15.014;2023-03-23T08:44:05;4.78;;;3.08;;
75894;SDS011;64573;50.328;15.014;2023-03-23T08:46:30;7.00;;;4.03;;
75894;SDS011;64573;50.328;15.014;2023-03-23T08:48:56;7.78;;;3.67;;
75894;SDS011;64573;50.328;15.014;2023-03-23T08:51:21;10.20;;;3.53;;
75894;SDS011;64573;50.328;15.014;2023-03-23T08:53:47;9.52;;;3.10;;
75894;SDS011;64573;50.328;15.014;2023-03-23T08:56:12;5.78;;;3.20;;
75894;SDS011;64573;50.328;15.014;2023-03-23T08:58:39;5.78;;;3.10;;
75894;SDS011;64573;50.328;15.014;2023-03-23T09:01:05;6.88;;;3.13;;
75894;SDS011;64573;50.328;15.014;2023-03-23T09:03:32;7.85;;;3.25;;
75894;SDS011;64573;50.328;15.014;2023-03-23T09:06:00;7.15;;;2.90;;
75894;SDS011;64573;50.328;15.014;2023-03-23T09:08:27;5.20;;;2.85;;
75894;SDS011;64573;50.328;15.014;2023-03-23T09:10:59;9.90;;;3.33;;
75894;SDS011;64573;50.328;15.014;2023-03-23T09:13:26;6.18;;;3.00;;
75894;SDS011;64573;50.328;15.014;2023-03-23T09:15:51;7.90;;;2.83;;
75894;SDS011;64573;50.328;15.014;2023-03-23T09:18:17;6.70;;;2.80;;
75894;SDS011;64573;50.328;15.014;2023-03-23T09:20:43;3.47;;;2.40;;
75894;SDS011;64573;50.328;15.014;2023-03-23T09:23:10;5.13;;;2.42;;
75894;SDS011;64573;50.328;15.014;2023-03-23T09:25:37;3.13;;;2.40;;
75894;SDS011;64573;50.328;15.014;2023-03-23T09:28:03;10.10;;;2.53;;
75894;SDS011;64573;50.328;15.014;2023-03-23T09:30:29;5.85;;;2.33;;
75894;SDS011;64573;50.328;15.014;2023-03-23T09:32:57;5.63;;;2.22;;
75894;SDS011;64573;50.328;15.014;2023-03-23T09:37:55;4.85;;;2.42;;
75894;SDS011;64573;50.328;15.014;2023-03-23T09:40:26;11.45;;;2.72;;
75894;SDS011;64573;50.328;15.014;2023-03-23T09:53:42;4.38;;;1.58;;
75894;SDS011;64573;50.328;15.014;2023-03-23T09:56:12;3.75;;;1.63;;
75894;SDS011;64573;50.328;15.014;2023-03-23T10:01:25;3.13;;;1.50;;
75894;SDS011;64573;50.328;15.014;2023-03-23T10:03:58;3.03;;;1.30;;
75894;SDS011;64573;50.328;15.014;2023-03-23T10:06:28;3.67;;;1.45;;
75894;SDS011;64573;50.328;15.014;2023-03-23T10:08:55;6.03;;;1.70;;
75894;SDS011;64573;50.328;15.014;2023-03-23T10:14:10;4.75;;;1.70;;
75894;SDS011;64573;50.328;15.014;2023-03-23T10:17:00;6.20;;;2.15;;
75894;SDS011;64573;50.328;15.014;2023-03-23T10:19:29;3.13;;;1.90;;
75894;SDS011;64573;50.328;15.014;2023-03-23T10:22:04;7.00;;;1.98;;
75894;SDS011;64573;50.328;15.014;2023-03-23T10:24:38;1.90;;;1.30;;
75894;SDS011;64573;50.328;15.014;2023-03-23T10:27:13;2.78;;;1.30;;
75894;SDS011;64573;50.328;15.014;2023-03-23T10:29:48;2.40;;;1.40;;
75894;SDS011;64573;50.328;15.014;2023-03-23T10:32:20;7.13;;;1.65;;
75894;SDS011;64573;50.328;15.014;2023-03-23T10:35:03;4.30;;;1.75;;
75894;SDS011;64573;50.328;15.014;2023-03-23T10:37:38;6.65;;;1.55;;
75894;SDS011;64573;50.328;15.014;2023-03-23T10:40:18;4.93;;;1.60;;
75894;SDS011;64573;50.328;15.014;2023-03-23T10:42:49;2.10;;;1.50;;
75894;SDS011;64573;50.328;15.014;2023-03-23T10:45:22;3.38;;;1.58;;
75894;SDS011;64573;50.328;15.014;2023-03-23T10:47:55;3.25;;;1.70;;
75894;SDS011;64573;50.328;15.014;2023-03-23T10:50:36;4.95;;;1.63;;
75894;SDS011;64573;50.328;15.014;2023-03-23T10:53:11;5.10;;;1.80;;
75894;SDS011;64573;50.328;15.014;2023-03-23T10:55:41;6.88;;;1.83;;
75894;SDS011;64573;50.328;15.014;2023-03-23T10:58:09;5.85;;;1.83;;
75894;SDS011;64573;50.328;15.014;2023-03-23T11:00:54;5.07;;;2.63;;
75894;SDS011;64573;50.328;15.014;2023-03-23T11:03:25;7.38;;;1.90;;
75894;SDS011;64573;50.328;15.014;2023-03-23T11:06:00;2.47;;;1.30;;
75894;SDS011;64573;50.328;15.014;2023-03-23T11:08:30;4.10;;;1.30;;
75894;SDS011;64573;50.328;15.014;2023-03-23T11:13:37;2.53;;;1.45;;
75894;SDS011;64573;50.328;15.014;2023-03-23T11:16:07;2.85;;;1.45;;
75894;SDS011;64573;50.328;15.014;2023-03-23T11:18:37;2.30;;;1.30;;
75894;SDS011;64573;50.328;15.014;2023-03-23T11:21:05;4.70;;;1.60;;
75894;SDS011;64573;50.328;15.014;2023-03-23T11:23:34;1.60;;;1.20;;
75894;SDS011;64573;50.328;15.014;2023-03-23T11:26:16;2.40;;;1.27;;
75894;SDS011;64573;50.328;15.014;2023-03-23T11:28:47;1.70;;;1.20;;
75894;SDS011;64573;50.328;15.014;2023-03-23T11:31:30;1.88;;;1.20;;
75894;SDS011;64573;50.328;15.014;2023-03-23T11:33:59;1.55;;;1.13;;
75894;SDS011;64573;50.328;15.014;2023-03-23T11:36:35;1.77;;;1.25;;
75894;SDS011;64573;50.328;15.014;2023-03-23T11:39:03;5.50;;;1.40;;
75894;SDS011;64573;50.328;15.014;2023-03-23T11:41:44;2.80;;;1.50;;
75894;SDS011;64573;50.328;15.014;2023-03-23T11:44:10;2.63;;;1.30;;
75894;SDS011;64573;50.328;15.014;2023-03-23T11:49:13;1.30;;;1.20;;
75894;SDS011;64573;50.328;15.014;2023-03-23T11:51:47;5.32;;;1.50;;
75894;SDS011;64573;50.328;15.014;2023-03-23T11:56:51;2.42;;;1.25;;
75894;SDS011;64573;50.328;15.014;2023-03-23T11:59:18;3.85;;;1.15;;
75894;SDS011;64573;50.328;15.014;2023-03-23T12:10:58;2.08;;;1.15;;
75894;SDS011;64573;50.328;15.014;2023-03-23T12:13:48;2.55;;;1.20;;
75894;SDS011;64573;50.328;15.014;2023-03-23T12:19:42;2.75;;;1.00;;
75894;SDS011;64573;50.328;15.014;2023-03-23T12:22:29;2.17;;;0.95;;
75894;SDS011;64573;50.328;15.014;2023-03-23T12:30:41;6.60;;;1.63;;
75894;SDS011;64573;50.328;15.014;2023-03-23T12:33:11;3.63;;;1.77;;
75894;SDS011;64573;50.328;15.014;2023-03-23T12:35:50;3.88;;;1.55;;
75894;SDS011;64573;50.328;15.014;2023-03-23T12:44:09;3.67;;;1.60;;
75894;SDS011;64573;50.328;15.014;2023-03-23T12:49:44;3.20;;;1.70;;
75894;SDS011;64573;50.328;15.014;2023-03-23T12:52:34;2.88;;;1.75;;
75894;SDS011;64573;50.328;15.014;2023-03-23T12:55:17;2.70;;;1.65;;
75894;SDS011;64573;50.328;15.014;2023-03-23T13:06:04;5.60;;;2.42;;
75894;SDS011;64573;50.328;15.014;2023-03-23T13:11:36;11.73;;;2.80;;
75894;SDS011;64573;50.328;15.014;2023-03-23T13:24:57;3.88;;;2.08;;
75894;SDS011;64573;50.328;15.014;2023-03-23T13:27:27;4.38;;;1.80;;
75894;SDS011;64573;50.328;15.014;2023-03-23T13:29:55;3.92;;;1.90;;
75894;SDS011;64573;50.328;15.014;2023-03-23T13:32:23;8.30;;;2.10;;
75894;SDS011;64573;50.328;15.014;2023-03-23T13:34:57;5.03;;;2.30;;
75894;SDS011;64573;50.328;15.014;2023-03-23T13:37:30;4.00;;;2.22;;
75894;SDS011;64573;50.328;15.014;2023-03-23T13:39:57;3.03;;;2.03;;
75894;SDS011;64573;50.328;15.014;2023-03-23T13:42:53;3.45;;;1.98;;
75894;SDS011;64573;50.328;15.014;2023-03-23T13:50:55;4.55;;;2.35;;
75894;SDS011;64573;50.328;15.014;2023-03-23T13:53:24;6.80;;;2.80;;
75894;SDS011;64573;50.328;15.014;2023-03-23T13:59:07;8.57;;;3.60;;
75894;SDS011;64573;50.328;15.014;2023-03-23T14:01:38;6.80;;;2.75;;
75894;SDS011;64573;50.328;15.014;2023-03-23T14:04:16;7.38;;;3.03;;
75894;SDS011;64573;50.328;15.014;2023-03-23T14:06:44;7.68;;;2.80;;
75894;SDS011;64573;50.328;15.014;2023-03-23T14:09:16;4.05;;;2.50;;
75894;SDS011;64573;50.328;15.014;2023-03-23T14:12:03;4.65;;;2.42;;
75894;SDS011;64573;50.328;15.014;2023-03-23T14:17:26;5.50;;;2.17;;
75894;SDS011;64573;50.328;15.014;2023-03-23T14:19:56;4.30;;;2.33;;
75894;SDS011;64573;50.328;15.014;2023-03-23T14:22:25;4.72;;;2.80;;
75894;SDS011;64573;50.328;15.014;2023-03-23T14:24:52;4.88;;;2.50;;
75894;SDS011;64573;50.328;15.014;2023-03-23T14:27:35;3.40;;;2.20;;
75894;SDS011;64573;50.328;15.014;2023-03-23T14:30:02;6.15;;;2.60;;
75894;SDS011;64573;50.328;15.014;2023-03-23T14:32:31;4.30;;;2.53;;
75894;SDS011;64573;50.328;15.014;2023-03-23T14:34:57;6.35;;;2.88;;
75894;SDS011;64573;50.328;15.014;2023-03-23T14:37:24;3.78;;;2.33;;
75894;SDS011;64573;50.328;15.014;2023-03-23T14:39:51;4.38;;;2.60;;
75894;SDS011;64573;50.328;15.014;2023-03-23T14:42:26;4.18;;;2.20;;
75894;SDS011;64573;50.328;15.014;2023-03-23T14:44:55;6.00;;;3.50;;
75894;SDS011;64573;50.328;15.014;2023-03-23T14:47:23;9.05;;;3.65;;
75894;SDS011;64573;50.328;15.014;2023-03-23T14:49:56;13.05;;;4.43;;
75894;SDS011;64573;50.328;15.014;2023-03-23T14:52:26;7.40;;;4.05;;
75894;SDS011;64573;50.328;15.014;2023-03-23T14:54:53;6.00;;;3.28;;
75894;SDS011;64573;50.328;15.014;2023-03-23T14:57:25;8.00;;;3.60;;
75894;SDS011;64573;50.328;15.014;2023-03-23T14:59:53;7.90;;;3.05;;
75894;SDS011;64573;50.328;15.014;2023-03-23T15:02:21;3.97;;;2.80;;
75894;SDS011;64573;50.328;15.014;2023-03-23T15:04:48;3.45;;;1.92;;
75894;SDS011;64573;50.328;15.014;2023-03-23T15:07:17;5.25;;;2.35;;
75894;SDS011;64573;50.328;15.014;2023-03-23T15:09:43;3.17;;;2.22;;
75894;SDS011;64573;50.328;15.014;2023-03-23T15:12:24;6.35;;;2.08;;
75894;SDS011;64573;50.328;15.014;2023-03-23T15:15:01;4.90;;;2.38;;
75894;SDS011;64573;50.328;15.014;2023-03-23T15:17:30;6.75;;;3.90;;
75894;SDS011;64573;50.328;15.014;2023-03-23T15:20:07;7.15;;;4.28;;
75894;SDS011;64573;50.328;15.014;2023-03-23T15:22:45;9.90;;;4.93;;
75894;SDS011;64573;50.328;15.014;2023-03-23T15:27:43;7.50;;;4.50;;
75894;SDS011;64573;50.328;15.014;2023-03-23T15:30:18;11.00;;;4.00;;
75894;SDS011;64573;50.328;15.014;2023-03-23T15:32:55;10.02;;;6.90;;
75894;SDS011;64573;50.328;15.014;2023-03-23T15:35:36;9.50;;;4.80;;
75894;SDS011;64573;50.328;15.014;2023-03-23T15:38:04;4.00;;;2.03;;
75894;SDS011;64573;50.328;15.014;2023-03-23T15:40:33;2.30;;;1.73;;
75894;SDS011;64573;50.328;15.014;2023-03-23T15:43:21;4.93;;;1.90;;
75894;SDS011;64573;50.328;15.014;2023-03-23T15:48:44;3.00;;;1.80;;
75894;SDS011;64573;50.328;15.014;2023-03-23T15:51:31;5.97;;;3.15;;
75894;SDS011;64573;50.328;15.014;2023-03-23T15:53:57;4.18;;;2.70;;
75894;SDS011;64573;50.328;15.014;2023-03-23T15:56:23;3.25;;;2.03;;
75894;SDS011;64573;50.328;15.014;2023-03-23T15:58:50;5.57;;;2.15;;
75894;SDS011;64573;50.328;15.014;2023-03-23T16:01:24;2.97;;;2.10;;
75894;SDS011;64573;50.328;15.014;2023-03-23T16:03:55;2.47;;;2.03;;
75894;SDS011;64573;50.328;15.014;2023-03-23T16:06:24;4.03;;;2.00;;
75894;SDS011;64573;50.328;15.014;2023-03-23T16:08:52;2.17;;;1.70;;
75894;SDS011;64573;50.328;15.014;2023-03-23T16:11:18;1.95;;;1.60;;
75894;SDS011;64573;50.328;15.014;2023-03-23T16:13:44;2.20;;;1.70;;
75894;SDS011;64573;50.328;15.014;2023-03-23T16:16:13;4.38;;;1.60;;
75894;SDS011;64573;50.328;15.014;2023-03-23T16:18:40;2.80;;;1.90;;
75894;SDS011;64573;50.328;15.014;2023-03-23T16:21:06;5.00;;;1.60;;
75894;SDS011;64573;50.328;15.014;2023-03-23T16:23:32;4.13;;;1.35;;
75894;SDS011;64573;50.328;15.014;2023-03-23T16:25:57;2.25;;;1.50;;
75894;SDS011;64573;50.328;15.014;2023-03-23T16:28:22;2.25;;;1.13;;
75894;SDS011;64573;50.328;15.014;2023-03-23T16:30:48;3.38;;;1.35;;
75894;SDS011;64573;50.328;15.014;2023-03-23T16:33:13;1.40;;;1.30;;
75894;SDS011;64573;50.328;15.014;2023-03-23T16:35:39;2.15;;;1.35;;
75894;SDS011;64573;50.328;15.014;2023-03-23T16:38:05;3.05;;;1.30;;
75894;SDS011;64573;50.328;15.014;2023-03-23T16:40:31;1.52;;;1.30;;